sensor_id;sensor_type;location;lat;lon;timestamp;P1;durP1;ratioP1;P2;durP2;ratioP2
21769;SDS011;11046;49.558;8.674;2023-01-05T00:01:19;1.73;;;1.20;;
21769;SDS011;11046;49.558;8.674;2023-01-05T00:04:21;1.53;;;1.27;;
21769;SDS011;11046;49.558;8.674;2023-01-05T00:07:22;2.37;;;1.30;;
21769;SDS011;11046;49.558;8.674;2023-01-05T00:10:25;2.00;;;1.30;;
21769;SDS011;11046;49.558;8.674;2023-01-05T00:13:48;1.67;;;1.10;;
21769;SDS011;11046;49.558;8.674;2023-01-05T00:17:11;1.73;;;1.20;;
21769;SDS011;11046;49.558;8.674;2023-01-05T00:20:32;3.30;;;1.17;;
21769;SDS011;11046;49.558;8.674;2023-01-05T00:23:51;1.33;;;1.23;;
21769;SDS011;11046;49.558;8.674;2023-01-05T00:26:57;1.40;;;1.20;;
21769;SDS011;11046;49.558;8.674;2023-01-05T00:29:58;6.53;;;1.40;;
21769;SDS011;11046;49.558;8.674;2023-01-05T00:33:02;2.60;;;1.40;;
21769;SDS011;11046;49.558;8.674;2023-01-05T00:36:08;3.60;;;1.50;;
21769;SDS011;11046;49.558;8.674;2023-01-05T00:39:09;2.17;;;1.50;;
21769;SDS011;11046;49.558;8.674;2023-01-05T00:42:10;2.47;;;1.80;;
21769;SDS011;11046;49.558;8.674;2023-01-05T00:45:11;3.07;;;1.53;;
21769;SDS011;11046;49.558;8.674;2023-01-05T00:48:23;2.30;;;1.83;;
21769;SDS011;11046;49.558;8.674;2023-01-05T00:51:26;2.40;;;1.63;;
21769;SDS011;11046;49.558;8.674;2023-01-05T00:54:26;3.17;;;1.70;;
21769;SDS011;11046;49.558;8.674;2023-01-05T00:57:27;2.77;;;1.80;;
21769;SDS011;11046;49.558;8.674;2023-01-05T01:00:29;4.57;;;1.70;;
21769;SDS011;11046;49.558;8.674;2023-01-05T01:03:32;2.30;;;1.80;;
21769;SDS011;11046;49.558;8.674;2023-01-05T01:06:32;2.20;;;1.60;;
21769;SDS011;11046;49.558;8.674;2023-01-05T01:09:33;3.13;;;1.60;;
21769;SDS011;11046;49.558;8.674;2023-01-05T01:12:34;2.53;;;1.50;;
21769;SDS011;11046;49.558;8.674;2023-01-05T01:15:35;2.50;;;1.80;;
21769;SDS011;11046;49.558;8.674;2023-01-05T01:18:36;4.63;;;2.00;;
21769;SDS011;11046;49.558;8.674;2023-01-05T01:21:43;1.60;;;1.43;;
21769;SDS011;11046;49.558;8.674;2023-01-05T01:24:44;1.87;;;1.30;;
21769;SDS011;11046;49.558;8.674;2023-01-05T01:27:47;2.80;;;1.60;;
21769;SDS011;11046;49.558;8.674;2023-01-05T01:30:50;2.10;;;1.20;;
21769;SDS011;11046;49.558;8.674;2023-01-05T01:33:53;1.90;;;1.40;;
21769;SDS011;11046;49.558;8.674;2023-01-05T01:36:54;2.50;;;1.20;;
21769;SDS011;11046;49.558;8.674;2023-01-05T01:39:58;2.30;;;1.40;;
21769;SDS011;11046;49.558;8.674;2023-01-05T01:43:00;4.63;;;1.30;;
21769;SDS011;11046;49.558;8.674;2023-01-05T01:46:00;2.70;;;1.23;;
21769;SDS011;11046;49.558;8.674;2023-01-05T01:49:03;1.93;;;1.30;;
21769;SDS011;11046;49.558;8.674;2023-01-05T01:52:07;3.13;;;1.10;;
21769;SDS011;11046;49.558;8.674;2023-01-05T01:55:11;1.73;;;1.10;;
21769;SDS011;11046;49.558;8.674;2023-01-05T01:58:16;1.47;;;1.10;;
21769;SDS011;11046;49.558;8.674;2023-01-05T02:01:20;4.50;;;1.27;;
21769;SDS011;11046;49.558;8.674;2023-01-05T02:04:21;1.37;;;1.10;;
21769;SDS011;11046;49.558;8.674;2023-01-05T02:07:28;1.23;;;0.97;;
21769;SDS011;11046;49.558;8.674;2023-01-05T02:14:11;1.20;;;0.90;;
21769;SDS011;11046;49.558;8.674;2023-01-05T02:24:16;1.10;;;0.83;;
21769;SDS011;11046;49.558;8.674;2023-01-05T02:34:51;2.30;;;1.00;;
21769;SDS011;11046;49.558;8.674;2023-01-05T02:38:22;2.67;;;1.00;;
21769;SDS011;11046;49.558;8.674;2023-01-05T02:41:47;1.70;;;1.00;;
21769;SDS011;11046;49.558;8.674;2023-01-05T02:44:59;2.60;;;0.90;;
21769;SDS011;11046;49.558;8.674;2023-01-05T02:48:01;2.03;;;0.90;;
21769;SDS011;11046;49.558;8.674;2023-01-05T02:51:07;1.40;;;0.90;;
21769;SDS011;11046;49.558;8.674;2023-01-05T02:54:17;1.00;;;0.90;;
21769;SDS011;11046;49.558;8.674;2023-01-05T02:57:28;1.27;;;1.07;;
21769;SDS011;11046;49.558;8.674;2023-01-05T03:00:58;1.97;;;1.10;;
21769;SDS011;11046;49.558;8.674;2023-01-05T03:04:27;1.07;;;1.00;;
21769;SDS011;11046;49.558;8.674;2023-01-05T03:07:37;1.27;;;1.10;;
21769;SDS011;11046;49.558;8.674;2023-01-05T03:11:01;1.53;;;1.00;;
21769;SDS011;11046;49.558;8.674;2023-01-05T03:14:30;5.63;;;1.00;;
21769;SDS011;11046;49.558;8.674;2023-01-05T03:17:41;1.00;;;0.87;;
21769;SDS011;11046;49.558;8.674;2023-01-05T03:20:47;1.57;;;1.10;;
21769;SDS011;11046;49.558;8.674;2023-01-05T03:23:50;1.60;;;1.13;;
21769;SDS011;11046;49.558;8.674;2023-01-05T03:27:16;1.60;;;1.30;;
21769;SDS011;11046;49.558;8.674;2023-01-05T03:30:51;3.43;;;1.60;;
21769;SDS011;11046;49.558;8.674;2023-01-05T03:34:19;1.67;;;1.10;;
21769;SDS011;11046;49.558;8.674;2023-01-05T03:41:40;3.93;;;1.50;;
21769;SDS011;11046;49.558;8.674;2023-01-05T03:44:44;3.43;;;1.50;;
21769;SDS011;11046;49.558;8.674;2023-01-05T03:47:49;1.50;;;1.20;;
21769;SDS011;11046;49.558;8.674;2023-01-05T03:50:58;2.50;;;1.50;;
21769;SDS011;11046;49.558;8.674;2023-01-05T03:54:02;2.17;;;1.73;;
21769;SDS011;11046;49.558;8.674;2023-01-05T03:57:08;3.17;;;1.90;;
21769;SDS011;11046;49.558;8.674;2023-01-05T04:00:12;2.83;;;1.97;;
21769;SDS011;11046;49.558;8.674;2023-01-05T04:03:24;3.90;;;2.10;;
21769;SDS011;11046;49.558;8.674;2023-01-05T04:06:29;2.80;;;2.33;;
21769;SDS011;11046;49.558;8.674;2023-01-05T04:09:29;3.33;;;2.20;;
21769;SDS011;11046;49.558;8.674;2023-01-05T04:12:30;3.93;;;2.10;;
21769;SDS011;11046;49.558;8.674;2023-01-05T04:15:37;3.83;;;2.30;;
21769;SDS011;11046;49.558;8.674;2023-01-05T04:18:42;4.27;;;1.37;;
21769;SDS011;11046;49.558;8.674;2023-01-05T04:21:43;5.70;;;1.43;;
21769;SDS011;11046;49.558;8.674;2023-01-05T04:24:47;5.47;;;1.20;;
21769;SDS011;11046;49.558;8.674;2023-01-05T04:27:51;8.23;;;1.37;;
21769;SDS011;11046;49.558;8.674;2023-01-05T04:30:56;9.50;;;1.73;;
21769;SDS011;11046;49.558;8.674;2023-01-05T04:33:58;9.20;;;1.63;;
21769;SDS011;11046;49.558;8.674;2023-01-05T04:37:00;10.27;;;1.70;;
21769;SDS011;11046;49.558;8.674;2023-01-05T04:40:05;5.70;;;1.17;;
21769;SDS011;11046;49.558;8.674;2023-01-05T04:43:17;10.40;;;1.70;;
21769;SDS011;11046;49.558;8.674;2023-01-05T04:46:23;9.57;;;2.03;;
21769;SDS011;11046;49.558;8.674;2023-01-05T04:49:29;8.63;;;1.70;;
21769;SDS011;11046;49.558;8.674;2023-01-05T04:52:33;10.00;;;2.10;;
21769;SDS011;11046;49.558;8.674;2023-01-05T04:55:35;12.43;;;3.33;;
21769;SDS011;11046;49.558;8.674;2023-01-05T04:58:44;11.37;;;1.63;;
21769;SDS011;11046;49.558;8.674;2023-01-05T05:01:48;13.17;;;2.43;;
21769;SDS011;11046;49.558;8.674;2023-01-05T05:04:52;10.67;;;1.90;;
21769;SDS011;11046;49.558;8.674;2023-01-05T05:07:54;10.00;;;1.77;;
21769;SDS011;11046;49.558;8.674;2023-01-05T05:11:04;11.57;;;1.90;;
21769;SDS011;11046;49.558;8.674;2023-01-05T05:14:09;11.00;;;1.83;;
21769;SDS011;11046;49.558;8.674;2023-01-05T05:17:13;12.03;;;1.93;;
21769;SDS011;11046;49.558;8.674;2023-01-05T05:20:17;10.07;;;1.60;;
21769;SDS011;11046;49.558;8.674;2023-01-05T05:23:21;11.63;;;1.60;;
21769;SDS011;11046;49.558;8.674;2023-01-05T05:26:22;13.20;;;2.30;;
21769;SDS011;11046;49.558;8.674;2023-01-05T05:29:24;8.77;;;1.90;;
21769;SDS011;11046;49.558;8.674;2023-01-05T05:32:30;17.20;;;2.20;;
21769;SDS011;11046;49.558;8.674;2023-01-05T05:35:31;17.83;;;2.00;;
21769;SDS011;11046;49.558;8.674;2023-01-05T05:38:31;15.67;;;2.57;;
21769;SDS011;11046;49.558;8.674;2023-01-05T05:41:35;16.17;;;2.00;;
21769;SDS011;11046;49.558;8.674;2023-01-05T05:44:36;12.63;;;2.10;;
21769;SDS011;11046;49.558;8.674;2023-01-05T05:47:37;19.40;;;2.40;;
21769;SDS011;11046;49.558;8.674;2023-01-05T05:50:38;14.80;;;2.47;;
21769;SDS011;11046;49.558;8.674;2023-01-05T05:53:41;16.17;;;2.17;;
21769;SDS011;11046;49.558;8.674;2023-01-05T05:56:41;11.57;;;2.20;;
21769;SDS011;11046;49.558;8.674;2023-01-05T05:59:42;11.33;;;1.77;;
21769;SDS011;11046;49.558;8.674;2023-01-05T06:02:43;13.37;;;2.47;;
21769;SDS011;11046;49.558;8.674;2023-01-05T06:05:44;13.20;;;2.63;;
21769;SDS011;11046;49.558;8.674;2023-01-05T06:08:45;16.57;;;2.20;;
21769;SDS011;11046;49.558;8.674;2023-01-05T06:11:45;13.17;;;2.30;;
21769;SDS011;11046;49.558;8.674;2023-01-05T06:14:46;16.03;;;3.90;;
21769;SDS011;11046;49.558;8.674;2023-01-05T06:17:52;10.87;;;1.93;;
21769;SDS011;11046;49.558;8.674;2023-01-05T06:20:53;18.77;;;2.53;;
21769;SDS011;11046;49.558;8.674;2023-01-05T06:23:54;13.13;;;2.50;;
21769;SDS011;11046;49.558;8.674;2023-01-05T06:26:58;16.93;;;3.00;;
21769;SDS011;11046;49.558;8.674;2023-01-05T06:29:59;12.47;;;2.30;;
21769;SDS011;11046;49.558;8.674;2023-01-05T06:32:59;12.23;;;2.30;;
21769;SDS011;11046;49.558;8.674;2023-01-05T06:36:00;16.07;;;2.67;;
21769;SDS011;11046;49.558;8.674;2023-01-05T06:39:01;9.70;;;2.07;;
21769;SDS011;11046;49.558;8.674;2023-01-05T06:42:02;15.07;;;2.40;;
21769;SDS011;11046;49.558;8.674;2023-01-05T06:45:03;10.67;;;2.40;;
21769;SDS011;11046;49.558;8.674;2023-01-05T06:48:05;11.87;;;2.33;;
21769;SDS011;11046;49.558;8.674;2023-01-05T06:51:05;16.37;;;1.93;;
21769;SDS011;11046;49.558;8.674;2023-01-05T06:54:06;13.73;;;2.53;;
21769;SDS011;11046;49.558;8.674;2023-01-05T06:57:07;13.27;;;2.00;;
21769;SDS011;11046;49.558;8.674;2023-01-05T07:00:08;17.13;;;3.27;;
21769;SDS011;11046;49.558;8.674;2023-01-05T07:03:11;12.97;;;2.50;;
21769;SDS011;11046;49.558;8.674;2023-01-05T07:06:13;18.10;;;2.50;;
21769;SDS011;11046;49.558;8.674;2023-01-05T07:09:14;11.27;;;2.47;;
21769;SDS011;11046;49.558;8.674;2023-01-05T07:12:15;9.93;;;2.40;;
21769;SDS011;11046;49.558;8.674;2023-01-05T07:15:16;16.60;;;2.70;;
21769;SDS011;11046;49.558;8.674;2023-01-05T07:18:16;15.13;;;2.57;;
21769;SDS011;11046;49.558;8.674;2023-01-05T07:21:17;18.43;;;2.27;;
21769;SDS011;11046;49.558;8.674;2023-01-05T07:24:17;14.77;;;1.90;;
21769;SDS011;11046;49.558;8.674;2023-01-05T07:27:18;11.00;;;2.10;;
21769;SDS011;11046;49.558;8.674;2023-01-05T07:30:18;23.47;;;2.93;;
21769;SDS011;11046;49.558;8.674;2023-01-05T07:33:19;15.63;;;2.40;;
21769;SDS011;11046;49.558;8.674;2023-01-05T07:36:20;14.07;;;2.67;;
21769;SDS011;11046;49.558;8.674;2023-01-05T07:39:20;14.37;;;2.67;;
21769;SDS011;11046;49.558;8.674;2023-01-05T07:42:21;17.17;;;2.67;;
21769;SDS011;11046;49.558;8.674;2023-01-05T07:45:23;12.47;;;2.30;;
21769;SDS011;11046;49.558;8.674;2023-01-05T07:48:24;14.70;;;2.50;;
21769;SDS011;11046;49.558;8.674;2023-01-05T07:51:25;18.13;;;2.70;;
21769;SDS011;11046;49.558;8.674;2023-01-05T07:54:25;12.87;;;2.57;;
21769;SDS011;11046;49.558;8.674;2023-01-05T07:57:26;9.13;;;1.90;;
21769;SDS011;11046;49.558;8.674;2023-01-05T08:00:26;11.37;;;2.07;;
21769;SDS011;11046;49.558;8.674;2023-01-05T08:03:27;15.37;;;2.53;;
21769;SDS011;11046;49.558;8.674;2023-01-05T08:06:28;17.03;;;2.50;;
21769;SDS011;11046;49.558;8.674;2023-01-05T08:09:28;16.10;;;2.50;;
21769;SDS011;11046;49.558;8.674;2023-01-05T08:12:47;14.67;;;2.30;;
21769;SDS011;11046;49.558;8.674;2023-01-05T08:16:23;9.70;;;2.50;;
21769;SDS011;11046;49.558;8.674;2023-01-05T08:19:24;14.43;;;2.50;;
21769;SDS011;11046;49.558;8.674;2023-01-05T08:22:25;13.87;;;2.27;;
21769;SDS011;11046;49.558;8.674;2023-01-05T08:25:26;18.80;;;2.67;;
21769;SDS011;11046;49.558;8.674;2023-01-05T08:28:27;14.73;;;2.40;;
21769;SDS011;11046;49.558;8.674;2023-01-05T08:31:28;14.83;;;2.33;;
21769;SDS011;11046;49.558;8.674;2023-01-05T08:34:30;15.63;;;3.77;;
21769;SDS011;11046;49.558;8.674;2023-01-05T08:37:31;15.27;;;2.70;;
21769;SDS011;11046;49.558;8.674;2023-01-05T08:40:31;15.77;;;2.47;;
21769;SDS011;11046;49.558;8.674;2023-01-05T08:43:32;15.87;;;2.57;;
21769;SDS011;11046;49.558;8.674;2023-01-05T08:46:33;13.23;;;3.03;;
21769;SDS011;11046;49.558;8.674;2023-01-05T08:49:35;39.50;;;6.47;;
21769;SDS011;11046;49.558;8.674;2023-01-05T08:52:38;16.47;;;3.90;;
21769;SDS011;11046;49.558;8.674;2023-01-05T08:55:39;19.47;;;5.10;;
21769;SDS011;11046;49.558;8.674;2023-01-05T08:58:40;47.67;;;20.80;;
21769;SDS011;11046;49.558;8.674;2023-01-05T09:01:41;16.20;;;4.77;;
21769;SDS011;11046;49.558;8.674;2023-01-05T09:04:41;12.37;;;3.40;;
21769;SDS011;11046;49.558;8.674;2023-01-05T09:07:42;16.77;;;3.67;;
21769;SDS011;11046;49.558;8.674;2023-01-05T09:10:43;22.37;;;5.93;;
21769;SDS011;11046;49.558;8.674;2023-01-05T09:13:48;16.13;;;3.27;;
21769;SDS011;11046;49.558;8.674;2023-01-05T09:16:51;20.90;;;2.97;;
21769;SDS011;11046;49.558;8.674;2023-01-05T09:19:51;21.17;;;4.87;;
21769;SDS011;11046;49.558;8.674;2023-01-05T09:22:52;12.73;;;2.40;;
21769;SDS011;11046;49.558;8.674;2023-01-05T09:25:53;18.23;;;3.03;;
21769;SDS011;11046;49.558;8.674;2023-01-05T09:28:53;19.23;;;3.20;;
21769;SDS011;11046;49.558;8.674;2023-01-05T09:31:54;20.40;;;3.20;;
21769;SDS011;11046;49.558;8.674;2023-01-05T09:34:54;19.37;;;4.63;;
21769;SDS011;11046;49.558;8.674;2023-01-05T09:37:55;14.70;;;3.50;;
21769;SDS011;11046;49.558;8.674;2023-01-05T09:40:57;19.63;;;4.53;;
21769;SDS011;11046;49.558;8.674;2023-01-05T09:44:04;13.40;;;3.30;;
21769;SDS011;11046;49.558;8.674;2023-01-05T09:50:37;23.00;;;2.37;;
21769;SDS011;11046;49.558;8.674;2023-01-05T09:53:38;13.43;;;2.97;;
21769;SDS011;11046;49.558;8.674;2023-01-05T09:56:40;14.17;;;2.73;;
21769;SDS011;11046;49.558;8.674;2023-01-05T09:59:45;15.13;;;3.00;;
21769;SDS011;11046;49.558;8.674;2023-01-05T10:02:49;16.23;;;2.67;;
21769;SDS011;11046;49.558;8.674;2023-01-05T10:05:52;17.07;;;2.77;;
21769;SDS011;11046;49.558;8.674;2023-01-05T10:08:53;12.47;;;2.50;;
21769;SDS011;11046;49.558;8.674;2023-01-05T10:12:30;12.87;;;2.40;;
21769;SDS011;11046;49.558;8.674;2023-01-05T10:15:57;11.47;;;2.40;;
21769;SDS011;11046;49.558;8.674;2023-01-05T10:18:58;16.83;;;4.60;;
21769;SDS011;11046;49.558;8.674;2023-01-05T10:22:14;17.30;;;3.60;;
21769;SDS011;11046;49.558;8.674;2023-01-05T10:29:02;20.60;;;3.70;;
21769;SDS011;11046;49.558;8.674;2023-01-05T10:35:40;17.77;;;3.90;;
21769;SDS011;11046;49.558;8.674;2023-01-05T10:39:04;18.90;;;5.20;;
21769;SDS011;11046;49.558;8.674;2023-01-05T10:42:24;15.87;;;3.27;;
21769;SDS011;11046;49.558;8.674;2023-01-05T10:45:51;14.97;;;3.13;;
21769;SDS011;11046;49.558;8.674;2023-01-05T10:49:00;14.10;;;3.07;;
21769;SDS011;11046;49.558;8.674;2023-01-05T10:52:12;15.77;;;2.80;;
21769;SDS011;11046;49.558;8.674;2023-01-05T10:55:17;16.30;;;3.40;;
21769;SDS011;11046;49.558;8.674;2023-01-05T10:58:38;12.37;;;2.97;;
21769;SDS011;11046;49.558;8.674;2023-01-05T11:01:45;16.83;;;2.90;;
21769;SDS011;11046;49.558;8.674;2023-01-05T11:05:04;21.43;;;3.20;;
21769;SDS011;11046;49.558;8.674;2023-01-05T11:08:26;17.63;;;3.13;;
21769;SDS011;11046;49.558;8.674;2023-01-05T11:11:31;14.97;;;3.20;;
21769;SDS011;11046;49.558;8.674;2023-01-05T11:14:34;17.83;;;3.30;;
21769;SDS011;11046;49.558;8.674;2023-01-05T11:17:42;16.40;;;3.20;;
21769;SDS011;11046;49.558;8.674;2023-01-05T11:21:04;16.50;;;3.40;;
21769;SDS011;11046;49.558;8.674;2023-01-05T11:27:26;18.30;;;4.30;;
21769;SDS011;11046;49.558;8.674;2023-01-05T11:30:26;10.13;;;2.80;;
21769;SDS011;11046;49.558;8.674;2023-01-05T11:33:28;18.53;;;3.27;;
21769;SDS011;11046;49.558;8.674;2023-01-05T11:36:32;14.43;;;3.50;;
21769;SDS011;11046;49.558;8.674;2023-01-05T11:42:51;13.47;;;2.90;;
21769;SDS011;11046;49.558;8.674;2023-01-05T11:45:54;17.57;;;3.57;;
21769;SDS011;11046;49.558;8.674;2023-01-05T11:48:58;12.47;;;3.03;;
21769;SDS011;11046;49.558;8.674;2023-01-05T11:52:00;12.67;;;3.40;;
21769;SDS011;11046;49.558;8.674;2023-01-05T11:58:42;13.03;;;3.17;;
21769;SDS011;11046;49.558;8.674;2023-01-05T12:01:48;14.33;;;2.90;;
21769;SDS011;11046;49.558;8.674;2023-01-05T12:08:26;18.33;;;2.60;;
21769;SDS011;11046;49.558;8.674;2023-01-05T12:11:36;12.80;;;3.50;;
21769;SDS011;11046;49.558;8.674;2023-01-05T12:14:48;15.93;;;3.10;;
21769;SDS011;11046;49.558;8.674;2023-01-05T12:21:24;16.17;;;2.80;;
21769;SDS011;11046;49.558;8.674;2023-01-05T12:38:17;12.77;;;3.10;;
21769;SDS011;11046;49.558;8.674;2023-01-05T12:48:33;14.97;;;3.13;;
21769;SDS011;11046;49.558;8.674;2023-01-05T12:51:43;16.77;;;2.80;;
21769;SDS011;11046;49.558;8.674;2023-01-05T12:54:49;25.10;;;3.30;;
21769;SDS011;11046;49.558;8.674;2023-01-05T12:58:03;15.03;;;3.17;;
21769;SDS011;11046;49.558;8.674;2023-01-05T13:01:15;19.10;;;3.10;;
21769;SDS011;11046;49.558;8.674;2023-01-05T13:04:31;21.15;;;3.03;;
21769;SDS011;11046;49.558;8.674;2023-01-05T13:07:44;21.97;;;2.80;;
21769;SDS011;11046;49.558;8.674;2023-01-05T13:17:31;10.07;;;2.50;;
21769;SDS011;11046;49.558;8.674;2023-01-05T13:20:39;17.80;;;3.07;;
21769;SDS011;11046;49.558;8.674;2023-01-05T13:23:54;15.60;;;3.00;;
21769;SDS011;11046;49.558;8.674;2023-01-05T13:27:00;15.60;;;3.03;;
21769;SDS011;11046;49.558;8.674;2023-01-05T13:30:02;13.93;;;2.93;;
21769;SDS011;11046;49.558;8.674;2023-01-05T13:40:03;12.17;;;3.00;;
21769;SDS011;11046;49.558;8.674;2023-01-05T13:46:39;14.50;;;2.63;;
21769;SDS011;11046;49.558;8.674;2023-01-05T13:50:15;13.87;;;2.70;;
21769;SDS011;11046;49.558;8.674;2023-01-05T13:53:34;18.33;;;3.00;;
21769;SDS011;11046;49.558;8.674;2023-01-05T13:56:38;12.97;;;2.50;;
21769;SDS011;11046;49.558;8.674;2023-01-05T13:59:39;17.60;;;3.13;;
21769;SDS011;11046;49.558;8.674;2023-01-05T14:02:42;17.43;;;2.93;;
21769;SDS011;11046;49.558;8.674;2023-01-05T14:05:49;23.53;;;4.00;;
21769;SDS011;11046;49.558;8.674;2023-01-05T14:08:54;21.07;;;3.30;;
21769;SDS011;11046;49.558;8.674;2023-01-05T14:18:12;22.00;;;3.60;;
21769;SDS011;11046;49.558;8.674;2023-01-05T14:25:23;22.40;;;4.90;;
21769;SDS011;11046;49.558;8.674;2023-01-05T14:31:40;28.73;;;5.80;;
21769;SDS011;11046;49.558;8.674;2023-01-05T14:34:44;21.20;;;4.73;;
21769;SDS011;11046;49.558;8.674;2023-01-05T14:37:58;15.77;;;3.93;;
21769;SDS011;11046;49.558;8.674;2023-01-05T14:41:02;21.37;;;3.97;;
21769;SDS011;11046;49.558;8.674;2023-01-05T14:44:18;15.10;;;3.27;;
21769;SDS011;11046;49.558;8.674;2023-01-05T14:47:33;16.10;;;3.00;;
21769;SDS011;11046;49.558;8.674;2023-01-05T14:50:47;16.30;;;3.63;;
21769;SDS011;11046;49.558;8.674;2023-01-05T14:54:04;18.60;;;3.10;;
21769;SDS011;11046;49.558;8.674;2023-01-05T15:00:36;21.30;;;4.83;;
21769;SDS011;11046;49.558;8.674;2023-01-05T15:03:46;17.97;;;3.53;;
21769;SDS011;11046;49.558;8.674;2023-01-05T15:07:27;21.50;;;3.00;;
21769;SDS011;11046;49.558;8.674;2023-01-05T15:24:26;17.37;;;4.43;;
21769;SDS011;11046;49.558;8.674;2023-01-05T15:27:56;26.40;;;5.17;;
21769;SDS011;11046;49.558;8.674;2023-01-05T15:37:42;17.73;;;3.50;;
21769;SDS011;11046;49.558;8.674;2023-01-05T15:40:46;15.23;;;3.80;;
21769;SDS011;11046;49.558;8.674;2023-01-05T15:43:48;19.97;;;4.17;;
21769;SDS011;11046;49.558;8.674;2023-01-05T15:46:49;15.47;;;4.10;;
21769;SDS011;11046;49.558;8.674;2023-01-05T15:49:54;15.90;;;3.90;;
21769;SDS011;11046;49.558;8.674;2023-01-05T15:52:59;20.10;;;3.77;;
21769;SDS011;11046;49.558;8.674;2023-01-05T15:56:01;19.23;;;3.80;;
21769;SDS011;11046;49.558;8.674;2023-01-05T15:59:02;23.20;;;5.20;;
21769;SDS011;11046;49.558;8.674;2023-01-05T16:02:15;22.23;;;4.70;;
21769;SDS011;11046;49.558;8.674;2023-01-05T16:05:22;17.70;;;4.60;;
21769;SDS011;11046;49.558;8.674;2023-01-05T16:08:25;22.40;;;4.47;;
21769;SDS011;11046;49.558;8.674;2023-01-05T16:11:27;18.70;;;4.33;;
21769;SDS011;11046;49.558;8.674;2023-01-05T16:14:38;16.70;;;4.60;;
21769;SDS011;11046;49.558;8.674;2023-01-05T16:17:44;21.57;;;4.20;;
21769;SDS011;11046;49.558;8.674;2023-01-05T16:20:45;20.73;;;4.97;;
21769;SDS011;11046;49.558;8.674;2023-01-05T16:24:35;24.87;;;4.70;;
21769;SDS011;11046;49.558;8.674;2023-01-05T16:27:48;20.40;;;4.03;;
21769;SDS011;11046;49.558;8.674;2023-01-05T16:30:57;17.23;;;4.83;;
21769;SDS011;11046;49.558;8.674;2023-01-05T16:34:18;17.93;;;4.67;;
21769;SDS011;11046;49.558;8.674;2023-01-05T16:37:22;20.77;;;4.93;;
21769;SDS011;11046;49.558;8.674;2023-01-05T16:40:23;17.63;;;5.97;;
21769;SDS011;11046;49.558;8.674;2023-01-05T16:43:32;17.03;;;5.77;;
21769;SDS011;11046;49.558;8.674;2023-01-05T16:46:38;26.67;;;7.03;;
21769;SDS011;11046;49.558;8.674;2023-01-05T16:49:40;20.20;;;5.47;;
21769;SDS011;11046;49.558;8.674;2023-01-05T16:52:41;33.80;;;9.33;;
21769;SDS011;11046;49.558;8.674;2023-01-05T16:55:49;26.77;;;7.67;;
21769;SDS011;11046;49.558;8.674;2023-01-05T16:58:50;23.57;;;5.90;;
21769;SDS011;11046;49.558;8.674;2023-01-05T17:01:51;19.60;;;5.57;;
21769;SDS011;11046;49.558;8.674;2023-01-05T17:04:51;25.10;;;6.10;;
21769;SDS011;11046;49.558;8.674;2023-01-05T17:08:02;19.30;;;4.87;;
21769;SDS011;11046;49.558;8.674;2023-01-05T17:11:07;18.13;;;5.20;;
21769;SDS011;11046;49.558;8.674;2023-01-05T17:14:11;21.43;;;5.03;;
21769;SDS011;11046;49.558;8.674;2023-01-05T17:17:13;22.03;;;5.17;;
21769;SDS011;11046;49.558;8.674;2023-01-05T17:20:14;18.33;;;5.40;;
21769;SDS011;11046;49.558;8.674;2023-01-05T17:23:20;27.03;;;5.27;;
21769;SDS011;11046;49.558;8.674;2023-01-05T17:26:27;23.77;;;4.73;;
21769;SDS011;11046;49.558;8.674;2023-01-05T17:29:31;20.07;;;5.23;;
21769;SDS011;11046;49.558;8.674;2023-01-05T17:32:32;19.70;;;4.93;;
21769;SDS011;11046;49.558;8.674;2023-01-05T17:35:34;18.20;;;4.87;;
21769;SDS011;11046;49.558;8.674;2023-01-05T17:38:35;18.43;;;5.90;;
21769;SDS011;11046;49.558;8.674;2023-01-05T17:41:37;19.73;;;5.47;;
21769;SDS011;11046;49.558;8.674;2023-01-05T17:44:38;13.47;;;3.80;;
21769;SDS011;11046;49.558;8.674;2023-01-05T17:47:39;19.37;;;5.03;;
21769;SDS011;11046;49.558;8.674;2023-01-05T17:50:41;22.80;;;5.30;;
21769;SDS011;11046;49.558;8.674;2023-01-05T17:53:42;18.30;;;4.43;;
21769;SDS011;11046;49.558;8.674;2023-01-05T17:56:44;15.87;;;4.27;;
21769;SDS011;11046;49.558;8.674;2023-01-05T17:59:45;22.70;;;5.10;;
21769;SDS011;11046;49.558;8.674;2023-01-05T18:02:46;19.00;;;5.00;;
21769;SDS011;11046;49.558;8.674;2023-01-05T18:05:49;19.17;;;4.67;;
21769;SDS011;11046;49.558;8.674;2023-01-05T18:08:51;16.77;;;3.67;;
21769;SDS011;11046;49.558;8.674;2023-01-05T18:11:53;19.80;;;3.87;;
21769;SDS011;11046;49.558;8.674;2023-01-05T18:14:54;18.50;;;3.93;;
21769;SDS011;11046;49.558;8.674;2023-01-05T18:17:55;20.47;;;4.00;;
21769;SDS011;11046;49.558;8.674;2023-01-05T18:20:58;11.80;;;3.37;;
21769;SDS011;11046;49.558;8.674;2023-01-05T18:24:01;19.77;;;3.80;;
21769;SDS011;11046;49.558;8.674;2023-01-05T18:27:02;21.40;;;4.00;;
21769;SDS011;11046;49.558;8.674;2023-01-05T18:30:07;18.77;;;4.10;;
21769;SDS011;11046;49.558;8.674;2023-01-05T18:33:09;21.37;;;4.80;;
21769;SDS011;11046;49.558;8.674;2023-01-05T18:36:11;20.40;;;4.57;;
21769;SDS011;11046;49.558;8.674;2023-01-05T18:39:14;19.03;;;4.80;;
21769;SDS011;11046;49.558;8.674;2023-01-05T18:42:15;17.77;;;3.93;;
21769;SDS011;11046;49.558;8.674;2023-01-05T18:45:17;20.93;;;4.37;;
21769;SDS011;11046;49.558;8.674;2023-01-05T18:48:20;21.20;;;4.80;;
21769;SDS011;11046;49.558;8.674;2023-01-05T18:51:21;16.30;;;6.13;;
21769;SDS011;11046;49.558;8.674;2023-01-05T18:54:23;14.77;;;4.57;;
21769;SDS011;11046;49.558;8.674;2023-01-05T18:57:24;13.63;;;3.83;;
21769;SDS011;11046;49.558;8.674;2023-01-05T19:00:25;22.13;;;5.23;;
21769;SDS011;11046;49.558;8.674;2023-01-05T19:03:27;17.83;;;4.07;;
21769;SDS011;11046;49.558;8.674;2023-01-05T19:06:28;17.60;;;3.70;;
21769;SDS011;11046;49.558;8.674;2023-01-05T19:09:29;18.90;;;3.97;;
21769;SDS011;11046;49.558;8.674;2023-01-05T19:12:30;24.20;;;4.47;;
21769;SDS011;11046;49.558;8.674;2023-01-05T19:15:32;16.60;;;3.50;;
21769;SDS011;11046;49.558;8.674;2023-01-05T19:18:33;21.50;;;6.10;;
21769;SDS011;11046;49.558;8.674;2023-01-05T19:21:35;16.80;;;3.90;;
21769;SDS011;11046;49.558;8.674;2023-01-05T19:24:38;21.77;;;4.37;;
21769;SDS011;11046;49.558;8.674;2023-01-05T19:27:41;18.27;;;3.73;;
21769;SDS011;11046;49.558;8.674;2023-01-05T19:30:44;18.53;;;4.13;;
21769;SDS011;11046;49.558;8.674;2023-01-05T19:33:46;17.13;;;4.40;;
21769;SDS011;11046;49.558;8.674;2023-01-05T19:36:48;18.43;;;3.93;;
21769;SDS011;11046;49.558;8.674;2023-01-05T19:39:49;20.33;;;3.57;;
21769;SDS011;11046;49.558;8.674;2023-01-05T19:42:51;20.43;;;4.90;;
21769;SDS011;11046;49.558;8.674;2023-01-05T19:45:56;19.80;;;4.73;;
21769;SDS011;11046;49.558;8.674;2023-01-05T19:49:00;21.23;;;4.83;;
21769;SDS011;11046;49.558;8.674;2023-01-05T19:52:02;21.37;;;4.70;;
21769;SDS011;11046;49.558;8.674;2023-01-05T19:55:03;22.57;;;5.07;;
21769;SDS011;11046;49.558;8.674;2023-01-05T19:58:05;24.23;;;4.50;;
21769;SDS011;11046;49.558;8.674;2023-01-05T20:01:07;19.53;;;4.37;;
21769;SDS011;11046;49.558;8.674;2023-01-05T20:04:09;15.23;;;4.10;;
21769;SDS011;11046;49.558;8.674;2023-01-05T20:07:10;21.20;;;6.50;;
21769;SDS011;11046;49.558;8.674;2023-01-05T20:10:12;20.63;;;7.17;;
21769;SDS011;11046;49.558;8.674;2023-01-05T20:13:14;19.87;;;6.40;;
21769;SDS011;11046;49.558;8.674;2023-01-05T20:16:15;17.40;;;6.13;;
21769;SDS011;11046;49.558;8.674;2023-01-05T20:19:17;17.47;;;4.50;;
21769;SDS011;11046;49.558;8.674;2023-01-05T20:22:18;20.80;;;5.27;;
21769;SDS011;11046;49.558;8.674;2023-01-05T20:25:20;30.50;;;5.07;;
21769;SDS011;11046;49.558;8.674;2023-01-05T20:28:22;16.00;;;4.47;;
21769;SDS011;11046;49.558;8.674;2023-01-05T20:31:24;19.40;;;4.27;;